sensor_id;sensor_type;location;lat;lon;timestamp;pressure;altitude;pressure_sealevel;temperature;humidity
23229;BME280;11783;50.350;6.576;2022-11-15T00:00:33;95649.53;;;9.32;100.00
23229;BME280;11783;50.350;6.576;2022-11-15T00:02:58;95641.63;;;9.37;100.00
23229;BME280;11783;50.350;6.576;2022-11-15T00:05:24;95646.97;;;9.42;100.00
23229;BME280;11783;50.350;6.576;2022-11-15T00:07:50;95652.00;;;9.44;100.00
23229;BME280;11783;50.350;6.576;2022-11-15T00:10:15;95638.22;;;9.41;100.00
23229;BME280;11783;50.350;6.576;2022-11-15T00:12:41;95644.31;;;9.42;100.00
23229;BME280;11783;50.350;6.576;2022-11-15T00:15:10;95634.66;;;9.31;100.00
23229;BME280;11783;50.350;6.576;2022-11-15T00:17:36;95641.63;;;9.37;100.00
23229;BME280;11783;50.350;6.576;2022-11-15T00:20:02;95644.22;;;9.32;100.00
23229;BME280;11783;50.350;6.576;2022-11-15T00:22:33;95638.38;;;9.30;100.00
23229;BME280;11783;50.350;6.576;2022-11-15T00:24:59;95638.13;;;9.31;100.00
23229;BME280;11783;50.350;6.576;2022-11-15T00:27:24;95639.16;;;9.30;100.00
23229;BME280;11783;50.350;6.576;2022-11-15T00:29:49;95631.44;;;9.29;100.00
23229;BME280;11783;50.350;6.576;2022-11-15T00:32:14;95638.84;;;9.27;100.00
23229;BME280;11783;50.350;6.576;2022-11-15T00:34:40;95637.00;;;9.27;100.00
23229;BME280;11783;50.350;6.576;2022-11-15T00:37:06;95635.34;;;9.21;100.00
23229;BME280;11783;50.350;6.576;2022-11-15T00:39:31;95634.09;;;9.29;100.00
23229;BME280;11783;50.350;6.576;2022-11-15T00:41:56;95620.34;;;9.32;100.00
23229;BME280;11783;50.350;6.576;2022-11-15T00:44:22;95621.59;;;9.24;100.00
23229;BME280;11783;50.350;6.576;2022-11-15T00:46:47;95624.59;;;9.33;100.00
23229;BME280;11783;50.350;6.576;2022-11-15T00:49:12;95619.06;;;9.34;100.00
23229;BME280;11783;50.350;6.576;2022-11-15T00:51:38;95616.91;;;9.31;100.00
23229;BME280;11783;50.350;6.576;2022-11-15T00:54:03;95614.97;;;9.27;100.00
23229;BME280;11783;50.350;6.576;2022-11-15T00:56:28;95617.97;;;9.30;100.00
23229;BME280;11783;50.350;6.576;2022-11-15T00:58:53;95622.50;;;9.35;100.00
23229;BME280;11783;50.350;6.576;2022-11-15T01:01:19;95614.03;;;9.38;100.00
23229;BME280;11783;50.350;6.576;2022-11-15T01:03:44;95619.31;;;9.33;100.00
23229;BME280;11783;50.350;6.576;2022-11-15T01:06:10;95607.09;;;9.32;100.00
23229;BME280;11783;50.350;6.576;2022-11-15T01:08:38;95613.50;;;9.36;100.00
23229;BME280;11783;50.350;6.576;2022-11-15T01:11:05;95603.13;;;9.34;100.00
23229;BME280;11783;50.350;6.576;2022-11-15T01:13:32;95609.84;;;9.42;100.00
23229;BME280;11783;50.350;6.576;2022-11-15T01:15:59;95606.38;;;9.41;100.00
23229;BME280;11783;50.350;6.576;2022-11-15T01:18:30;95598.69;;;9.40;100.00
23229;BME280;11783;50.350;6.576;2022-11-15T01:20:55;95602.88;;;9.36;100.00
23229;BME280;11783;50.350;6.576;2022-11-15T01:23:20;95599.47;;;9.40;100.00
23229;BME280;11783;50.350;6.576;2022-11-15T01:25:45;95600.28;;;9.41;100.00
23229;BME280;11783;50.350;6.576;2022-11-15T01:28:11;95597.75;;;9.51;100.00
23229;BME280;11783;50.350;6.576;2022-11-15T01:30:36;95595.38;;;9.55;100.00
23229;BME280;11783;50.350;6.576;2022-11-15T01:33:01;95582.41;;;9.58;100.00
23229;BME280;11783;50.350;6.576;2022-11-15T01:35:27;95597.78;;;9.56;100.00
23229;BME280;11783;50.350;6.576;2022-11-15T01:37:52;95587.38;;;9.50;100.00
23229;BME280;11783;50.350;6.576;2022-11-15T01:40:17;95579.25;;;9.61;100.00
23229;BME280;11783;50.350;6.576;2022-11-15T01:42:43;95581.06;;;9.56;100.00
23229;BME280;11783;50.350;6.576;2022-11-15T01:45:14;95580.84;;;9.62;100.00
23229;BME280;11783;50.350;6.576;2022-11-15T01:47:43;95580.03;;;9.62;100.00
23229;BME280;11783;50.350;6.576;2022-11-15T01:50:14;95571.03;;;9.63;100.00
23229;BME280;11783;50.350;6.576;2022-11-15T01:52:41;95574.69;;;9.57;100.00
23229;BME280;11783;50.350;6.576;2022-11-15T01:55:14;95566.53;;;9.63;100.00
23229;BME280;11783;50.350;6.576;2022-11-15T01:57:42;95551.13;;;9.60;100.00
23229;BME280;11783;50.350;6.576;2022-11-15T02:00:14;95553.47;;;9.57;100.00
23229;BME280;11783;50.350;6.576;2022-11-15T02:02:40;95553.50;;;9.62;100.00
23229;BME280;11783;50.350;6.576;2022-11-15T02:05:06;95549.50;;;9.59;100.00
23229;BME280;11783;50.350;6.576;2022-11-15T02:07:34;95550.31;;;9.60;100.00
23229;BME280;11783;50.350;6.576;2022-11-15T02:10:06;95548.47;;;9.60;100.00
23229;BME280;11783;50.350;6.576;2022-11-15T02:12:32;95549.72;;;9.53;100.00
23229;BME280;11783;50.350;6.576;2022-11-15T02:14:59;95542.50;;;9.48;100.00
23229;BME280;11783;50.350;6.576;2022-11-15T02:23:37;95535.16;;;9.55;100.00
23229;BME280;11783;50.350;6.576;2022-11-15T02:26:36;95534.34;;;9.50;100.00
23229;BME280;11783;50.350;6.576;2022-11-15T02:32:04;95531.41;;;9.51;100.00
23229;BME280;11783;50.350;6.576;2022-11-15T02:37:39;95531.41;;;9.51;100.00
23229;BME280;11783;50.350;6.576;2022-11-15T02:43:18;95534.38;;;9.55;100.00
23229;BME280;11783;50.350;6.576;2022-11-15T02:46:10;95531.69;;;9.50;100.00
23229;BME280;11783;50.350;6.576;2022-11-15T02:48:38;95541.53;;;9.54;100.00
23229;BME280;11783;50.350;6.576;2022-11-15T02:51:04;95531.97;;;9.53;100.00
23229;BME280;11783;50.350;6.576;2022-11-15T02:53:30;95545.47;;;9.52;100.00
23229;BME280;11783;50.350;6.576;2022-11-15T02:55:56;95533.22;;;9.46;100.00
23229;BME280;11783;50.350;6.576;2022-11-15T03:01:31;95534.06;;;9.51;100.00
23229;BME280;11783;50.350;6.576;2022-11-15T03:04:23;95532.28;;;9.62;100.00
23229;BME280;11783;50.350;6.576;2022-11-15T03:07:05;95548.44;;;9.55;100.00
23229;BME280;11783;50.350;6.576;2022-11-15T03:09:35;95531.16;;;9.53;100.00
23229;BME280;11783;50.350;6.576;2022-11-15T03:12:28;95536.78;;;9.61;100.00
23229;BME280;11783;50.350;6.576;2022-11-15T03:15:18;95529.84;;;9.55;100.00
23229;BME280;11783;50.350;6.576;2022-11-15T03:17:51;95525.94;;;9.63;100.00
23229;BME280;11783;50.350;6.576;2022-11-15T03:20:19;95526.72;;;9.63;100.00
23229;BME280;11783;50.350;6.576;2022-11-15T03:22:47;95525.19;;;9.67;100.00
23229;BME280;11783;50.350;6.576;2022-11-15T03:25:17;95519.53;;;9.59;100.00
23229;BME280;11783;50.350;6.576;2022-11-15T03:27:48;95520.09;;;9.66;100.00
23229;BME280;11783;50.350;6.576;2022-11-15T03:30:15;95523.56;;;9.66;100.00
23229;BME280;11783;50.350;6.576;2022-11-15T03:32:46;95515.59;;;9.66;100.00
23229;BME280;11783;50.350;6.576;2022-11-15T03:35:15;95519.09;;;9.72;100.00
23229;BME280;11783;50.350;6.576;2022-11-15T03:37:46;95513.19;;;9.65;100.00
23229;BME280;11783;50.350;6.576;2022-11-15T03:40:14;95515.38;;;9.68;100.00
23229;BME280;11783;50.350;6.576;2022-11-15T03:42:48;95511.91;;;9.67;100.00
23229;BME280;11783;50.350;6.576;2022-11-15T03:45:27;95513.28;;;9.75;100.00
23229;BME280;11783;50.350;6.576;2022-11-15T03:48:01;95509.75;;;9.64;100.00
23229;BME280;11783;50.350;6.576;2022-11-15T03:50:28;95511.31;;;9.60;100.00
23229;BME280;11783;50.350;6.576;2022-11-15T03:52:55;95516.91;;;9.64;100.00
23229;BME280;11783;50.350;6.576;2022-11-15T03:55:24;95514.00;;;9.65;100.00
23229;BME280;11783;50.350;6.576;2022-11-15T03:57:53;95511.91;;;9.67;100.00
23229;BME280;11783;50.350;6.576;2022-11-15T04:00:19;95517.69;;;9.59;100.00
23229;BME280;11783;50.350;6.576;2022-11-15T04:02:45;95522.16;;;9.54;100.00
23229;BME280;11783;50.350;6.576;2022-11-15T04:05:10;95514.78;;;9.61;100.00
23229;BME280;11783;50.350;6.576;2022-11-15T04:07:36;95514.19;;;9.54;100.00
23229;BME280;11783;50.350;6.576;2022-11-15T04:10:02;95516.75;;;9.44;100.00
23229;BME280;11783;50.350;6.576;2022-11-15T04:12:34;95511.66;;;9.37;100.00
23229;BME280;11783;50.350;6.576;2022-11-15T04:15:07;95520.69;;;9.36;100.00
23229;BME280;11783;50.350;6.576;2022-11-15T04:17:47;95522.19;;;9.27;100.00
23229;BME280;11783;50.350;6.576;2022-11-15T04:23:04;95529.50;;;9.15;100.00
23229;BME280;11783;50.350;6.576;2022-11-15T04:28:15;95526.56;;;9.11;100.00
23229;BME280;11783;50.350;6.576;2022-11-15T04:30:40;95526.22;;;9.07;100.00
23229;BME280;11783;50.350;6.576;2022-11-15T04:33:06;95523.03;;;9.05;100.00
23229;BME280;11783;50.350;6.576;2022-11-15T04:35:31;95525.13;;;9.03;100.00
23229;BME280;11783;50.350;6.576;2022-11-15T04:37:57;95529.91;;;9.01;100.00
23229;BME280;11783;50.350;6.576;2022-11-15T04:40:23;95521.97;;;9.06;100.00
23229;BME280;11783;50.350;6.576;2022-11-15T04:42:48;95512.69;;;9.04;100.00
23229;BME280;11783;50.350;6.576;2022-11-15T04:45:13;95508.81;;;9.12;100.00
23229;BME280;11783;50.350;6.576;2022-11-15T04:47:39;95507.16;;;9.10;100.00
23229;BME280;11783;50.350;6.576;2022-11-15T04:50:04;95509.03;;;9.10;100.00
23229;BME280;11783;50.350;6.576;2022-11-15T04:52:30;95504.78;;;9.09;100.00
23229;BME280;11783;50.350;6.576;2022-11-15T04:54:55;95503.19;;;9.08;100.00
23229;BME280;11783;50.350;6.576;2022-11-15T04:57:20;95514.28;;;9.05;100.00
23229;BME280;11783;50.350;6.576;2022-11-15T04:59:46;95512.97;;;9.07;100.00
23229;BME280;11783;50.350;6.576;2022-11-15T05:02:11;95511.03;;;8.98;100.00
23229;BME280;11783;50.350;6.576;2022-11-15T05:04:36;95508.22;;;9.09;100.00
23229;BME280;11783;50.350;6.576;2022-11-15T05:07:02;95515.09;;;9.05;100.00
23229;BME280;11783;50.350;6.576;2022-11-15T05:09:29;95518.59;;;9.11;100.00
23229;BME280;11783;50.350;6.576;2022-11-15T05:11:54;95518.28;;;9.07;100.00
23229;BME280;11783;50.350;6.576;2022-11-15T05:14:20;95513.22;;;9.06;100.00
23229;BME280;11783;50.350;6.576;2022-11-15T05:16:45;95517.44;;;9.02;100.00
23229;BME280;11783;50.350;6.576;2022-11-15T05:19:10;95518.19;;;8.97;100.00
23229;BME280;11783;50.350;6.576;2022-11-15T05:21:36;95516.22;;;8.88;100.00
23229;BME280;11783;50.350;6.576;2022-11-15T05:24:02;95518.03;;;8.82;100.00
23229;BME280;11783;50.350;6.576;2022-11-15T05:26:27;95517.28;;;8.87;100.00
23229;BME280;11783;50.350;6.576;2022-11-15T05:28:55;95509.31;;;8.87;100.00
23229;BME280;11783;50.350;6.576;2022-11-15T05:31:21;95518.03;;;8.82;100.00
23229;BME280;11783;50.350;6.576;2022-11-15T05:33:46;95505.84;;;8.81;100.00
23229;BME280;11783;50.350;6.576;2022-11-15T05:36:16;95512.53;;;8.89;100.00
23229;BME280;11783;50.350;6.576;2022-11-15T05:38:43;95511.19;;;8.86;100.00
23229;BME280;11783;50.350;6.576;2022-11-15T05:41:08;95509.41;;;8.70;100.00
23229;BME280;11783;50.350;6.576;2022-11-15T05:43:36;95504.50;;;8.78;100.00
23229;BME280;11783;50.350;6.576;2022-11-15T05:46:04;95515.34;;;8.77;100.00
23229;BME280;11783;50.350;6.576;2022-11-15T05:48:30;95514.22;;;8.73;100.00
23229;BME280;11783;50.350;6.576;2022-11-15T05:50:56;95514.78;;;8.75;100.00
23229;BME280;11783;50.350;6.576;2022-11-15T05:53:22;95511.50;;;8.68;100.00
23229;BME280;11783;50.350;6.576;2022-11-15T05:55:50;95512.31;;;8.68;100.00
23229;BME280;11783;50.350;6.576;2022-11-15T05:58:16;95507.75;;;8.64;100.00
23229;BME280;11783;50.350;6.576;2022-11-15T06:00:42;95514.13;;;8.63;100.00
23229;BME280;11783;50.350;6.576;2022-11-15T06:03:08;95519.66;;;8.61;100.00
23229;BME280;11783;50.350;6.576;2022-11-15T06:05:34;95526.56;;;8.62;100.00
23229;BME280;11783;50.350;6.576;2022-11-15T06:07:59;95527.31;;;8.58;100.00
23229;BME280;11783;50.350;6.576;2022-11-15T06:10:24;95528.97;;;8.42;100.00
23229;BME280;11783;50.350;6.576;2022-11-15T06:13:00;95530.88;;;8.46;100.00
23229;BME280;11783;50.350;6.576;2022-11-15T06:15:26;95538.56;;;8.48;100.00
23229;BME280;11783;50.350;6.576;2022-11-15T06:17:51;95534.22;;;8.37;100.00
23229;BME280;11783;50.350;6.576;2022-11-15T06:20:17;95530.25;;;8.39;100.00
23229;BME280;11783;50.350;6.576;2022-11-15T06:22:42;95528.41;;;8.40;100.00
23229;BME280;11783;50.350;6.576;2022-11-15T06:25:07;95523.38;;;8.38;100.00
23229;BME280;11783;50.350;6.576;2022-11-15T06:27:33;95532.09;;;8.39;100.00
23229;BME280;11783;50.350;6.576;2022-11-15T06:29:58;95534.22;;;8.37;100.00
23229;BME280;11783;50.350;6.576;2022-11-15T06:32:23;95533.97;;;8.38;100.00
23229;BME280;11783;50.350;6.576;2022-11-15T06:34:48;95537.53;;;8.32;100.00
23229;BME280;11783;50.350;6.576;2022-11-15T06:37:14;95548.06;;;8.27;100.00
23229;BME280;11783;50.350;6.576;2022-11-15T06:39:40;95546.66;;;8.19;100.00
23229;BME280;11783;50.350;6.576;2022-11-15T06:42:05;95553.31;;;8.22;100.00
23229;BME280;11783;50.350;6.576;2022-11-15T06:44:30;95545.34;;;8.22;100.00
23229;BME280;11783;50.350;6.576;2022-11-15T06:46:55;95550.56;;;8.17;100.00
23229;BME280;11783;50.350;6.576;2022-11-15T06:49:21;95564.38;;;8.19;100.00
23229;BME280;11783;50.350;6.576;2022-11-15T06:51:46;95558.50;;;8.17;100.00
23229;BME280;11783;50.350;6.576;2022-11-15T06:54:11;95555.41;;;8.03;100.00
23229;BME280;11783;50.350;6.576;2022-11-15T06:56:37;95549.63;;;8.06;100.00
23229;BME280;11783;50.350;6.576;2022-11-15T06:59:04;95557.34;;;8.08;100.00
23229;BME280;11783;50.350;6.576;2022-11-15T07:01:31;95556.59;;;8.12;100.00
23229;BME280;11783;50.350;6.576;2022-11-15T07:03:56;95542.41;;;8.18;100.00
23229;BME280;11783;50.350;6.576;2022-11-15T07:06:21;95548.09;;;8.10;100.00
23229;BME280;11783;50.350;6.576;2022-11-15T07:08:47;95553.03;;;8.02;100.00
23229;BME280;11783;50.350;6.576;2022-11-15T07:11:12;95549.63;;;8.06;100.00
23229;BME280;11783;50.350;6.576;2022-11-15T07:13:37;95552.47;;;8.00;100.00
23229;BME280;11783;50.350;6.576;2022-11-15T07:16:04;95552.22;;;8.01;100.00
23229;BME280;11783;50.350;6.576;2022-11-15T07:18:30;95566.50;;;8.00;100.00
23229;BME280;11783;50.350;6.576;2022-11-15T07:20:55;95558.16;;;7.92;100.00
23229;BME280;11783;50.350;6.576;2022-11-15T07:23:20;95568.81;;;7.97;100.00
23229;BME280;11783;50.350;6.576;2022-11-15T07:25:46;95567.44;;;7.94;100.00
23229;BME280;11783;50.350;6.576;2022-11-15T07:28:11;95566.09;;;7.92;100.00
23229;BME280;11783;50.350;6.576;2022-11-15T07:30:36;95569.78;;;7.90;100.00
23229;BME280;11783;50.350;6.576;2022-11-15T07:33:02;95576.59;;;7.86;100.00
23229;BME280;11783;50.350;6.576;2022-11-15T07:35:28;95584.06;;;7.89;100.00
23229;BME280;11783;50.350;6.576;2022-11-15T07:37:58;95574.09;;;7.97;100.00
23229;BME280;11783;50.350;6.576;2022-11-15T07:40:25;95582.13;;;7.85;100.00
23229;BME280;11783;50.350;6.576;2022-11-15T07:42:51;95594.06;;;7.87;100.00
23229;BME280;11783;50.350;6.576;2022-11-15T07:45:21;95583.50;;;7.87;100.00
23229;BME280;11783;50.350;6.576;2022-11-15T07:47:48;95580.84;;;7.87;100.00
23229;BME280;11783;50.350;6.576;2022-11-15T07:50:13;95575.06;;;7.90;100.00
23229;BME280;11783;50.350;6.576;2022-11-15T07:52:39;95575.72;;;7.81;100.00
23229;BME280;11783;50.350;6.576;2022-11-15T07:55:04;95576.53;;;7.81;100.00
23229;BME280;11783;50.350;6.576;2022-11-15T07:57:30;95576.13;;;7.89;100.00
23229;BME280;11783;50.350;6.576;2022-11-15T07:59:55;95584.38;;;7.93;100.00
23229;BME280;11783;50.350;6.576;2022-11-15T08:02:20;95571.38;;;7.92;100.00
23229;BME280;11783;50.350;6.576;2022-11-15T08:04:49;95560.47;;;7.88;100.00
23229;BME280;11783;50.350;6.576;2022-11-15T08:07:17;95562.09;;;7.89;100.00
23229;BME280;11783;50.350;6.576;2022-11-15T08:09:42;95573.88;;;7.81;100.00
23229;BME280;11783;50.350;6.576;2022-11-15T08:12:08;95572.34;;;7.85;100.00
23229;BME280;11783;50.350;6.576;2022-11-15T08:14:34;95577.16;;;7.88;100.00
23229;BME280;11783;50.350;6.576;2022-11-15T08:16:59;95573.16;;;7.86;100.00
23229;BME280;11783;50.350;6.576;2022-11-15T08:19:24;95569.53;;;7.92;100.00
23229;BME280;11783;50.350;6.576;2022-11-15T08:21:50;95570.56;;;7.91;100.00
23229;BME280;11783;50.350;6.576;2022-11-15T08:24:15;95570.16;;;7.99;100.00
23229;BME280;11783;50.350;6.576;2022-11-15T08:26:41;95567.84;;;8.03;100.00
23229;BME280;11783;50.350;6.576;2022-11-15T08:29:06;95565.44;;;8.01;100.00
23229;BME280;11783;50.350;6.576;2022-11-15T08:31:34;95571.13;;;7.93;100.00
23229;BME280;11783;50.350;6.576;2022-11-15T08:34:01;95556.31;;;7.92;100.00
23229;BME280;11783;50.350;6.576;2022-11-15T08:36:27;95556.22;;;8.04;100.00
23229;BME280;11783;50.350;6.576;2022-11-15T08:38:52;95547.47;;;8.03;100.00
23229;BME280;11783;50.350;6.576;2022-11-15T08:41:30;95557.75;;;8.00;100.00
23229;BME280;11783;50.350;6.576;2022-11-15T08:43:56;95550.38;;;8.02;100.00
23229;BME280;11783;50.350;6.576;2022-11-15T08:46:22;95556.47;;;8.02;100.00
23229;BME280;11783;50.350;6.576;2022-11-15T08:48:47;95555.31;;;7.98;100.00
23229;BME280;11783;50.350;6.576;2022-11-15T08:51:13;95544.91;;;8.08;100.00
23229;BME280;11783;50.350;6.576;2022-11-15T08:53:39;95539.59;;;8.08;100.00
23229;BME280;11783;50.350;6.576;2022-11-15T08:56:10;95545.44;;;8.10;100.00
23229;BME280;11783;50.350;6.576;2022-11-15T08:58:35;95546.81;;;8.13;100.00
23229;BME280;11783;50.350;6.576;2022-11-15T09:01:01;95559.31;;;8.17;100.00
23229;BME280;11783;50.350;6.576;2022-11-15T09:03:26;95548.34;;;8.09;100.00
23229;BME280;11783;50.350;6.576;2022-11-15T09:06:00;95551.59;;;8.16;100.00
23229;BME280;11783;50.350;6.576;2022-11-15T09:08:29;95559.41;;;8.23;100.00
23229;BME280;11783;50.350;6.576;2022-11-15T09:10:55;95560.09;;;8.18;100.00
23229;BME280;11783;50.350;6.576;2022-11-15T09:13:20;95561.50;;;8.20;100.00
23229;BME280;11783;50.350;6.576;2022-11-15T09:15:45;95550.09;;;8.20;100.00
23229;BME280;11783;50.350;6.576;2022-11-15T09:18:10;95559.78;;;8.14;100.00
23229;BME280;11783;50.350;6.576;2022-11-15T09:20:36;95549.69;;;8.11;100.00
23229;BME280;11783;50.350;6.576;2022-11-15T09:23:02;95554.88;;;8.01;100.00
23229;BME280;11783;50.350;6.576;2022-11-15T09:25:29;95539.59;;;8.08;100.00
23229;BME280;11783;50.350;6.576;2022-11-15T09:27:55;95533.22;;;8.04;100.00
23229;BME280;11783;50.350;6.576;2022-11-15T09:30:20;95524.47;;;8.04;100.00
23229;BME280;11783;50.350;6.576;2022-11-15T09:32:46;95524.84;;;8.12;100.00
23229;BME280;11783;50.350;6.576;2022-11-15T09:35:11;95523.63;;;8.20;100.00
23229;BME280;11783;50.350;6.576;2022-11-15T09:37:36;95516.53;;;8.26;100.00
23229;BME280;11783;50.350;6.576;2022-11-15T09:40:02;95511.66;;;8.34;100.00
23229;BME280;11783;50.350;6.576;2022-11-15T09:42:52;95512.34;;;8.46;100.00
23229;BME280;11783;50.350;6.576;2022-11-15T09:45:27;95510.19;;;8.43;100.00
23229;BME280;11783;50.350;6.576;2022-11-15T09:48:18;95510.72;;;8.45;100.00
23229;BME280;11783;50.350;6.576;2022-11-15T09:50:51;95508.38;;;8.49;100.00
23229;BME280;11783;50.350;6.576;2022-11-15T09:53:49;95504.53;;;8.57;100.00
23229;BME280;11783;50.350;6.576;2022-11-15T09:56:26;95502.22;;;8.65;100.00
23229;BME280;11783;50.350;6.576;2022-11-15T09:59:14;95503.69;;;8.78;100.00
23229;BME280;11783;50.350;6.576;2022-11-15T10:02:19;95499.94;;;8.74;100.00
23229;BME280;11783;50.350;6.576;2022-11-15T10:04:48;95490.16;;;8.74;100.00
23229;BME280;11783;50.350;6.576;2022-11-15T10:07:22;95488.84;;;8.77;100.00
23229;BME280;11783;50.350;6.576;2022-11-15T10:12:18;95471.53;;;8.96;100.00
23229;BME280;11783;50.350;6.576;2022-11-15T10:14:45;95471.47;;;8.91;100.00
23229;BME280;11783;50.350;6.576;2022-11-15T10:22:52;95459.94;;;9.02;100.00
23229;BME280;11783;50.350;6.576;2022-11-15T10:27:54;95458.56;;;8.95;100.00
23229;BME280;11783;50.350;6.576;2022-11-15T10:30:21;95461.25;;;9.00;100.00
23229;BME280;11783;50.350;6.576;2022-11-15T10:32:47;95456.47;;;9.02;100.00
23229;BME280;11783;50.350;6.576;2022-11-15T10:35:29;95449.06;;;9.04;100.00
23229;BME280;11783;50.350;6.576;2022-11-15T10:38:09;95443.47;;;9.00;100.00
23229;BME280;11783;50.350;6.576;2022-11-15T10:40:35;95437.53;;;9.15;100.00
23229;BME280;11783;50.350;6.576;2022-11-15T10:43:19;95434.34;;;9.18;100.00
23229;BME280;11783;50.350;6.576;2022-11-15T10:45:46;95432.34;;;9.30;100.00
23229;BME280;11783;50.350;6.576;2022-11-15T10:50:37;95409.41;;;9.51;100.00
23229;BME280;11783;50.350;6.576;2022-11-15T10:53:03;95404.66;;;9.53;100.00
23229;BME280;11783;50.350;6.576;2022-11-15T10:55:30;95406.03;;;9.66;100.00
23229;BME280;11783;50.350;6.576;2022-11-15T10:58:41;95396.00;;;9.78;100.00
23229;BME280;11783;50.350;6.576;2022-11-15T11:01:19;95392.59;;;9.83;100.00
23229;BME280;11783;50.350;6.576;2022-11-15T11:03:57;95386.19;;;9.74;100.00
23229;BME280;11783;50.350;6.576;2022-11-15T11:06:24;95399.44;;;9.68;100.00
23229;BME280;11783;50.350;6.576;2022-11-15T11:08:55;95395.19;;;9.73;100.00
23229;BME280;11783;50.350;6.576;2022-11-15T11:11:21;95385.41;;;9.78;100.00
23229;BME280;11783;50.350;6.576;2022-11-15T11:13:47;95385.16;;;9.85;100.00
23229;BME280;11783;50.350;6.576;2022-11-15T11:18:53;95373.16;;;10.24;100.00
23229;BME280;11783;50.350;6.576;2022-11-15T11:21:40;95367.84;;;10.40;100.00
23229;BME280;11783;50.350;6.576;2022-11-15T11:27:30;95375.06;;;10.49;100.00
23229;BME280;11783;50.350;6.576;2022-11-15T11:30:19;95389.91;;;10.35;100.00
23229;BME280;11783;50.350;6.576;2022-11-15T11:35:34;95356.88;;;10.16;100.00
23229;BME280;11783;50.350;6.576;2022-11-15T11:38:25;95367.28;;;10.22;100.00
23229;BME280;11783;50.350;6.576;2022-11-15T11:41:37;95358.56;;;10.27;100.00
23229;BME280;11783;50.350;6.576;2022-11-15T11:44:46;95351.13;;;10.34;100.00
23229;BME280;11783;50.350;6.576;2022-11-15T11:47:22;95353.75;;;10.24;100.00
23229;BME280;11783;50.350;6.576;2022-11-15T11:49:54;95333.06;;;10.36;100.00
23229;BME280;11783;50.350;6.576;2022-11-15T11:52:27;95328.03;;;10.50;100.00
23229;BME280;11783;50.350;6.576;2022-11-15T11:55:14;95330.16;;;10.58;100.00
23229;BME280;11783;50.350;6.576;2022-11-15T11:58:09;95330.69;;;10.55;100.00
23229;BME280;11783;50.350;6.576;2022-11-15T12:00:41;95331.22;;;10.57;100.00
23229;BME280;11783;50.350;6.576;2022-11-15T12:03:28;95326.44;;;10.59;100.00
23229;BME280;11783;50.350;6.576;2022-11-15T12:08:58;95325.66;;;10.64;100.00
23229;BME280;11783;50.350;6.576;2022-11-15T12:14:47;95313.94;;;10.59;100.00
23229;BME280;11783;50.350;6.576;2022-11-15T12:17:23;95295.38;;;10.49;100.00
23229;BME280;11783;50.350;6.576;2022-11-15T12:19:49;95284.47;;;10.46;100.00
23229;BME280;11783;50.350;6.576;2022-11-15T12:25:21;95270.41;;;10.45;100.00
23229;BME280;11783;50.350;6.576;2022-11-15T12:27:56;95269.34;;;10.46;100.00
23229;BME280;11783;50.350;6.576;2022-11-15T12:30:23;95268.25;;;10.57;100.00
23229;BME280;11783;50.350;6.576;2022-11-15T12:32:57;95262.16;;;10.57;100.00
23229;BME280;11783;50.350;6.576;2022-11-15T12:37:53;95262.69;;;10.54;100.00
23229;BME280;11783;50.350;6.576;2022-11-15T12:45:43;95263.22;;;10.61;100.00
23229;BME280;11783;50.350;6.576;2022-11-15T12:58:28;95220.72;;;10.66;100.00
23229;BME280;11783;50.350;6.576;2022-11-15T13:04:35;95231.31;;;10.86;100.00
23229;BME280;11783;50.350;6.576;2022-11-15T13:07:03;95220.94;;;10.90;100.00
23229;BME280;11783;50.350;6.576;2022-11-15T13:12:02;95221.16;;;11.09;100.00
23229;BME280;11783;50.350;6.576;2022-11-15T13:19:51;95200.59;;;11.35;100.00
23229;BME280;11783;50.350;6.576;2022-11-15T13:22:17;95199.53;;;11.36;100.00
23229;BME280;11783;50.350;6.576;2022-11-15T13:25:02;95194.72;;;11.38;100.00
23229;BME280;11783;50.350;6.576;2022-11-15T13:27:28;95190.78;;;11.25;100.00
23229;BME280;11783;50.350;6.576;2022-11-15T13:29:54;95189.75;;;11.21;100.00
23229;BME280;11783;50.350;6.576;2022-11-15T13:32:19;95175.88;;;11.34;100.00
23229;BME280;11783;50.350;6.576;2022-11-15T13:34:47;95180.13;;;11.35;100.00
23229;BME280;11783;50.350;6.576;2022-11-15T13:39:44;95180.88;;;11.41;100.00
23229;BME280;11783;50.350;6.576;2022-11-15T13:42:15;95190.97;;;11.44;100.00
23229;BME280;11783;50.350;6.576;2022-11-15T13:44:58;95180.34;;;11.34;100.00
23229;BME280;11783;50.350;6.576;2022-11-15T13:47:26;95172.38;;;11.34;100.00
23229;BME280;11783;50.350;6.576;2022-11-15T13:49:52;95161.75;;;11.34;100.00
23229;BME280;11783;50.350;6.576;2022-11-15T13:52:18;95151.38;;;11.37;100.00
23229;BME280;11783;50.350;6.576;2022-11-15T13:55:00;95146.78;;;11.48;100.00
23229;BME280;11783;50.350;6.576;2022-11-15T13:57:51;95149.19;;;11.44;100.00
23229;BME280;11783;50.350;6.576;2022-11-15T14:00:40;95148.44;;;11.39;100.00
23229;BME280;11783;50.350;6.576;2022-11-15T14:03:23;95132.75;;;11.32;100.00
23229;BME280;11783;50.350;6.576;2022-11-15T14:06:19;95135.19;;;11.23;100.00
23229;BME280;11783;50.350;6.576;2022-11-15T14:11:36;95127.00;;;11.10;100.00
23229;BME280;11783;50.350;6.576;2022-11-15T14:14:12;95124.38;;;11.05;100.00
23229;BME280;11783;50.350;6.576;2022-11-15T14:16:44;95119.91;;;10.90;100.00
23229;BME280;11783;50.350;6.576;2022-11-15T14:19:55;95118.63;;;10.82;100.00
23229;BME280;11783;50.350;6.576;2022-11-15T14:22:20;95110.91;;;10.76;100.00
23229;BME280;11783;50.350;6.576;2022-11-15T14:27:31;95114.13;;;10.73;100.00
23229;BME280;11783;50.350;6.576;2022-11-15T14:29:56;95096.38;;;10.63;100.00
23229;BME280;11783;50.350;6.576;2022-11-15T14:32:24;95087.59;;;10.57;100.00
23229;BME280;11783;50.350;6.576;2022-11-15T14:37:23;95093.97;;;10.56;100.00
23229;BME280;11783;50.350;6.576;2022-11-15T14:39:49;95086.25;;;10.65;100.00
23229;BME280;11783;50.350;6.576;2022-11-15T14:42:15;95087.84;;;10.66;100.00
23229;BME280;11783;50.350;6.576;2022-11-15T14:44:41;95080.44;;;10.63;100.00